createdAt,value
2022-11-26T00:00:49.035Z,15.88
2022-11-26T00:03:17.069Z,16.55
2022-11-26T00:05:45.668Z,12.02
2022-11-26T00:08:33.919Z,13.10
2022-11-26T00:11:01.987Z,15.90
2022-11-26T00:13:31.816Z,13.77
2022-11-26T00:15:59.347Z,17.33
2022-11-26T00:18:27.130Z,14.52
2022-11-26T00:20:56.168Z,14.57
2022-11-26T00:23:24.996Z,18.35
2022-11-26T00:25:55.666Z,17.58
2022-11-26T00:28:36.532Z,20.45
2022-11-26T00:31:06.129Z,16.50
2022-11-26T00:33:33.867Z,17.52
2022-11-26T00:36:27.190Z,16.30
2022-11-26T00:38:58.264Z,19.65
2022-11-26T00:41:26.906Z,14.55
2022-11-26T00:43:54.589Z,18.00
2022-11-26T00:46:23.196Z,13.70
2022-11-26T00:48:50.857Z,15.77
2022-11-26T00:51:26.779Z,12.85
2022-11-26T00:54:00.128Z,12.23
2022-11-26T00:56:28.205Z,12.27
2022-11-26T00:58:55.814Z,23.05
2022-11-26T01:01:24.716Z,14.52
2022-11-26T01:03:52.959Z,15.60
2022-11-26T01:06:24.539Z,14.35
2022-11-26T01:08:52.110Z,16.92
2022-11-26T01:11:24.286Z,12.55
2022-11-26T01:13:52.766Z,13.45
2022-11-26T01:16:26.146Z,13.30
2022-11-26T01:18:55.409Z,14.97
2022-11-26T01:21:23.707Z,14.80
2022-11-26T01:23:51.469Z,13.93
2022-11-26T01:26:20.679Z,22.90
2022-11-26T01:28:48.352Z,12.88
2022-11-26T01:31:19.858Z,12.85
2022-11-26T01:33:48.092Z,13.77
2022-11-26T01:36:21.899Z,14.30
2022-11-26T01:38:49.757Z,14.38
2022-11-26T01:41:20.365Z,14.45
2022-11-26T01:43:48.679Z,16.20
2022-11-26T01:46:17.383Z,15.20
2022-11-26T01:48:45.207Z,13.57
2022-11-26T01:51:13.479Z,12.40
2022-11-26T01:53:44.147Z,12.93
2022-11-26T01:56:14.714Z,18.15
2022-11-26T01:58:44.307Z,12.90
2022-11-26T02:01:12.088Z,16.33
2022-11-26T02:03:43.766Z,12.00
2022-11-26T02:06:17.943Z,15.10
2022-11-26T02:11:15.889Z,11.98
2022-11-26T02:13:43.686Z,12.02
2022-11-26T02:16:19.880Z,14.23
2022-11-26T02:18:51.570Z,13.88
2022-11-26T02:21:25.629Z,13.60
2022-11-26T02:24:11.890Z,14.93
2022-11-26T02:26:52.967Z,14.40
2022-11-26T02:29:20.508Z,18.60
2022-11-26T02:32:01.973Z,15.13
2022-11-26T02:34:40.580Z,17.60
2022-11-26T02:37:15.994Z,16.42
2022-11-26T02:39:43.406Z,20.95
2022-11-26T02:42:23.436Z,12.90
2022-11-26T02:44:50.958Z,16.80
2022-11-26T02:47:19.189Z,12.30
2022-11-26T02:49:46.907Z,21.73
2022-11-26T02:52:15.975Z,15.13
2022-11-26T02:54:44.795Z,11.85
2022-11-26T02:57:13.945Z,8.82
2022-11-26T02:59:41.567Z,15.02
2022-11-26T03:02:18.436Z,12.02
2022-11-26T03:04:49.451Z,9.98
2022-11-26T03:07:17.461Z,9.93
2022-11-26T03:09:52.901Z,18.52
2022-11-26T03:12:20.890Z,14.85
2022-11-26T03:14:48.541Z,18.42
2022-11-26T03:17:16.467Z,17.52
2022-11-26T03:19:43.960Z,13.68
2022-11-26T03:22:12.157Z,15.30
2022-11-26T03:24:40.187Z,11.15
2022-11-26T03:27:07.815Z,12.80
2022-11-26T03:29:35.379Z,18.35
2022-11-26T03:32:02.969Z,13.57
2022-11-26T03:34:30.644Z,12.30
2022-11-26T03:36:58.526Z,16.08
2022-11-26T03:39:26.150Z,16.70
2022-11-26T03:41:53.866Z,14.05
2022-11-26T03:44:21.537Z,13.60
2022-11-26T03:46:49.219Z,19.52
2022-11-26T03:49:17.046Z,10.90
2022-11-26T03:51:44.837Z,17.20
2022-11-26T03:54:12.376Z,22.77
2022-11-26T03:56:40.110Z,11.00
2022-11-26T03:59:07.967Z,16.60
2022-11-26T04:01:35.674Z,11.48
2022-11-26T04:04:03.307Z,14.90
2022-11-26T04:06:30.815Z,18.30
2022-11-26T04:08:58.407Z,18.65
2022-11-26T04:11:26.187Z,18.65
2022-11-26T04:13:53.536Z,17.05
2022-11-26T04:16:21.323Z,14.00
2022-11-26T04:18:49.378Z,15.15
2022-11-26T04:21:16.975Z,18.35
2022-11-26T04:23:44.727Z,16.45
2022-11-26T04:26:12.321Z,18.45
2022-11-26T04:28:39.887Z,13.70
2022-11-26T04:31:08.315Z,12.65
2022-11-26T04:33:35.807Z,18.38
2022-11-26T04:36:03.544Z,15.27
2022-11-26T04:38:31.542Z,13.90
2022-11-26T04:40:59.360Z,16.02
2022-11-26T04:43:26.888Z,13.32
2022-11-26T04:45:54.666Z,14.77
2022-11-26T04:48:22.430Z,16.98
2022-11-26T04:50:51.217Z,15.15
2022-11-26T04:53:22.288Z,12.68
2022-11-26T04:55:51.030Z,14.85
2022-11-26T04:58:19.455Z,21.10
2022-11-26T05:00:50.689Z,15.20
2022-11-26T05:03:19.129Z,11.20
2022-11-26T05:05:47.373Z,14.32
2022-11-26T05:08:14.958Z,14.30
2022-11-26T05:10:42.517Z,11.82
2022-11-26T05:13:10.424Z,14.57
2022-11-26T05:15:37.847Z,10.05
2022-11-26T05:18:05.520Z,11.93
2022-11-26T05:20:33.167Z,19.10
2022-11-26T05:23:00.877Z,14.82
2022-11-26T05:25:28.376Z,15.07
2022-11-26T05:27:56.152Z,15.52
2022-11-26T05:30:23.757Z,20.67
2022-11-26T05:32:51.217Z,16.17
2022-11-26T05:35:18.790Z,26.38
2022-11-26T05:37:46.406Z,11.45
2022-11-26T05:40:14.030Z,16.33
2022-11-26T05:42:41.670Z,17.27
2022-11-26T05:45:10.157Z,17.80
2022-11-26T05:47:37.915Z,14.13
2022-11-26T05:50:05.518Z,20.13
2022-11-26T05:52:32.965Z,13.02
2022-11-26T05:55:00.277Z,19.52
2022-11-26T05:57:28.087Z,17.65
2022-11-26T05:59:55.467Z,17.50
2022-11-26T06:02:23.341Z,14.30
2022-11-26T06:04:50.898Z,12.70
2022-11-26T06:07:18.962Z,19.33
2022-11-26T06:09:46.457Z,16.73
2022-11-26T06:12:13.989Z,15.10
2022-11-26T06:14:43.380Z,17.13
2022-11-26T06:17:12.106Z,19.42
2022-11-26T06:19:40.019Z,14.48
2022-11-26T06:22:07.730Z,22.17
2022-11-26T06:24:35.716Z,13.60
2022-11-26T06:27:03.399Z,24.85
2022-11-26T06:29:31.131Z,22.63
2022-11-26T06:31:58.619Z,21.27
2022-11-26T06:34:26.180Z,16.45
2022-11-26T06:36:53.927Z,18.08
2022-11-26T06:39:21.646Z,18.17
2022-11-26T06:41:49.187Z,17.40
2022-11-26T06:44:16.643Z,15.38
2022-11-26T06:46:44.306Z,24.15
2022-11-26T06:49:11.907Z,13.23
2022-11-26T06:51:39.339Z,22.05
2022-11-26T06:54:07.568Z,23.90
2022-11-26T06:56:36.106Z,18.67
2022-11-26T06:59:03.648Z,18.92
2022-11-26T07:01:31.424Z,18.40
2022-11-26T07:03:59.616Z,23.52
2022-11-26T07:06:28.266Z,27.83
2022-11-26T07:08:56.706Z,20.10
2022-11-26T07:11:25.059Z,19.00
2022-11-26T07:13:52.930Z,17.83
2022-11-26T07:16:20.848Z,15.57
2022-11-26T07:18:49.547Z,16.95
2022-11-26T07:21:17.683Z,20.02
2022-11-26T07:23:45.396Z,15.13
2022-11-26T07:26:13.280Z,17.98
2022-11-26T07:28:41.560Z,12.02
2022-11-26T07:31:16.243Z,10.15
2022-11-26T07:33:44.572Z,12.98
2022-11-26T07:36:31.819Z,16.70
2022-11-26T07:39:00.157Z,18.70
2022-11-26T07:41:27.749Z,11.23
2022-11-26T07:43:55.859Z,15.70
2022-11-26T07:46:25.601Z,19.98
2022-11-26T07:48:53.515Z,12.63
2022-11-26T07:51:25.297Z,17.33
2022-11-26T07:53:53.596Z,21.90
2022-11-26T07:56:20.949Z,12.45
2022-11-26T07:58:49.075Z,12.52
2022-11-26T08:01:18.469Z,12.65
2022-11-26T08:03:47.173Z,18.15
2022-11-26T08:06:16.291Z,17.17
2022-11-26T08:08:44.038Z,22.35
2022-11-26T08:11:15.739Z,13.73
2022-11-26T08:13:44.050Z,13.85
2022-11-26T08:16:11.680Z,16.23
2022-11-26T08:18:39.917Z,14.90
2022-11-26T08:21:07.420Z,19.27
2022-11-26T08:23:35.326Z,12.52
2022-11-26T08:26:22.715Z,19.63
2022-11-26T08:28:51.946Z,18.98
2022-11-26T08:31:19.646Z,23.20
2022-11-26T08:33:47.387Z,17.33
2022-11-26T08:36:15.179Z,15.65
2022-11-26T08:38:42.815Z,16.70
2022-11-26T08:41:11.896Z,19.65
2022-11-26T08:44:05.060Z,14.60
2022-11-26T08:46:27.073Z,22.13
2022-11-26T08:48:56.617Z,24.52
2022-11-26T08:51:24.378Z,20.55
2022-11-26T08:53:51.939Z,20.50
2022-11-26T08:56:19.758Z,20.45
2022-11-26T08:58:49.335Z,15.77
2022-11-26T09:01:17.049Z,19.77
2022-11-26T09:03:45.102Z,19.85
2022-11-26T09:06:12.640Z,18.63
2022-11-26T09:08:58.941Z,15.27
2022-11-26T09:11:27.206Z,16.88
2022-11-26T09:13:54.993Z,18.65
2022-11-26T09:16:23.524Z,18.58
2022-11-26T09:18:52.145Z,24.67
2022-11-26T09:21:20.059Z,32.33
2022-11-26T09:23:47.503Z,26.13
2022-11-26T09:26:15.047Z,22.35
2022-11-26T09:28:42.579Z,23.30
2022-11-26T09:31:10.221Z,23.48
2022-11-26T09:33:37.734Z,18.80
2022-11-26T09:36:07.386Z,20.20
2022-11-26T09:38:35.755Z,19.90
2022-11-26T09:41:03.426Z,18.48
2022-11-26T09:43:37.824Z,16.17
2022-11-26T09:46:05.588Z,23.50
2022-11-26T09:48:34.447Z,18.98
2022-11-26T09:51:07.656Z,17.88
2022-11-26T09:53:41.317Z,19.52
2022-11-26T09:56:12.516Z,36.15
2022-11-26T09:58:43.076Z,30.52
2022-11-26T10:01:14.220Z,25.35
2022-11-26T10:03:42.653Z,30.90
2022-11-26T10:06:29.316Z,31.23
2022-11-26T10:09:09.017Z,19.00
2022-11-26T10:11:42.252Z,21.25
2022-11-26T10:14:28.818Z,15.50
2022-11-26T10:17:14.997Z,24.65
2022-11-26T10:19:42.626Z,20.15
2022-11-26T10:22:21.080Z,20.65
2022-11-26T10:24:50.206Z,18.33
2022-11-26T10:27:18.757Z,22.55
2022-11-26T10:30:06.490Z,21.98
2022-11-26T10:32:37.767Z,24.25
2022-11-26T10:35:05.586Z,29.17
2022-11-26T10:37:33.216Z,18.27
2022-11-26T10:40:19.622Z,26.50
2022-11-26T10:42:58.195Z,18.90
2022-11-26T10:45:27.739Z,17.38
2022-11-26T10:48:17.442Z,29.20
2022-11-26T10:50:55.683Z,20.65
2022-11-26T10:53:24.039Z,18.02
2022-11-26T10:55:53.066Z,21.80
2022-11-26T10:58:22.958Z,16.60
2022-11-26T11:00:50.629Z,12.73
2022-11-26T11:06:23.280Z,13.23
2022-11-26T11:08:52.526Z,18.55
2022-11-26T11:11:20.640Z,16.20
2022-11-26T11:13:49.051Z,25.20
2022-11-26T11:16:19.570Z,19.15
2022-11-26T11:18:57.200Z,15.57
2022-11-26T11:21:27.176Z,17.60
2022-11-26T11:24:09.099Z,19.20
2022-11-26T11:26:42.696Z,11.85
2022-11-26T11:29:25.637Z,23.80
2022-11-26T11:31:53.463Z,19.88
2022-11-26T11:34:23.734Z,20.63
2022-11-26T11:37:14.899Z,14.35
2022-11-26T11:39:43.647Z,21.10
2022-11-26T11:42:40.800Z,21.42
2022-11-26T11:45:20.467Z,14.40
2022-11-26T11:47:53.162Z,28.77
2022-11-26T11:50:52.872Z,20.90
2022-11-26T11:53:23.700Z,26.55
2022-11-26T11:56:08.667Z,24.70
2022-11-26T11:58:39.374Z,25.83
2022-11-26T12:01:16.187Z,21.60
2022-11-26T12:04:08.500Z,17.15
2022-11-26T12:06:42.801Z,17.45
2022-11-26T12:09:16.645Z,34.58
2022-11-26T12:11:46.486Z,23.38
2022-11-26T12:14:34.120Z,30.58
2022-11-26T12:17:04.862Z,18.30
2022-11-26T12:19:35.567Z,64.57
2022-11-26T12:22:08.764Z,26.13
2022-11-26T12:24:40.486Z,42.35
2022-11-26T12:27:16.570Z,24.98
2022-11-26T12:29:47.142Z,20.42
2022-11-26T12:32:32.569Z,17.65
2022-11-26T12:35:04.577Z,12.90
2022-11-26T12:37:39.598Z,20.35
2022-11-26T12:40:17.851Z,15.23
2022-11-26T12:42:48.409Z,16.55
2022-11-26T12:45:19.400Z,15.00
2022-11-26T12:47:56.140Z,13.07
2022-11-26T12:50:42.439Z,15.25
2022-11-26T12:53:18.978Z,18.38
2022-11-26T12:56:00.444Z,14.02
2022-11-26T12:58:43.127Z,15.32
2022-11-26T13:01:11.742Z,14.15
2022-11-26T13:03:39.587Z,21.05
2022-11-26T13:06:07.459Z,15.57
2022-11-26T13:08:45.854Z,18.33
2022-11-26T13:11:27.560Z,15.18
2022-11-26T13:14:15.289Z,18.83
2022-11-26T13:16:58.500Z,14.20
2022-11-26T13:19:32.279Z,16.92
2022-11-26T13:22:18.686Z,13.43
2022-11-26T13:25:06.547Z,18.05
2022-11-26T13:27:53.298Z,11.82
2022-11-26T13:30:27.057Z,16.75
2022-11-26T13:33:00.656Z,18.10
2022-11-26T13:35:46.616Z,21.38
2022-11-26T13:38:17.146Z,25.23
2022-11-26T13:40:44.960Z,15.75
2022-11-26T13:43:31.416Z,12.50
2022-11-26T13:45:59.009Z,16.27
2022-11-26T13:48:32.766Z,16.33
2022-11-26T13:51:06.110Z,16.88
2022-11-26T13:53:40.159Z,16.27
2022-11-26T13:56:08.768Z,22.20
2022-11-26T13:58:42.337Z,14.27
2022-11-26T14:01:28.707Z,17.48
2022-11-26T14:03:57.241Z,15.30
2022-11-26T14:06:24.976Z,17.00
2022-11-26T14:08:53.489Z,34.35
2022-11-26T14:11:39.789Z,20.95
2022-11-26T14:14:25.745Z,28.85
2022-11-26T14:17:02.453Z,20.15
2022-11-26T14:19:57.146Z,16.30
2022-11-26T14:22:24.549Z,19.17
2022-11-26T14:24:52.366Z,17.20
2022-11-26T14:27:20.185Z,14.82
2022-11-26T14:29:49.440Z,14.90
2022-11-26T14:32:21.676Z,13.68
2022-11-26T14:34:58.828Z,17.92
2022-11-26T14:37:28.216Z,13.65
2022-11-26T14:40:03.392Z,16.52
2022-11-26T14:42:30.746Z,18.92
2022-11-26T14:45:02.629Z,10.85
2022-11-26T14:47:31.181Z,13.60
2022-11-26T14:50:01.822Z,16.08
2022-11-26T14:52:34.506Z,14.13
2022-11-26T14:55:07.958Z,15.23
2022-11-26T14:57:35.726Z,18.60
2022-11-26T15:00:05.730Z,20.58
2022-11-26T15:02:33.752Z,13.93
2022-11-26T15:05:13.409Z,10.65
2022-11-26T15:07:40.942Z,14.95
2022-11-26T15:10:14.560Z,21.40
2022-11-26T15:12:43.141Z,16.23
2022-11-26T15:15:14.583Z,21.65
2022-11-26T15:17:44.161Z,18.73
2022-11-26T15:20:15.283Z,13.55
2022-11-26T15:22:44.738Z,16.88
2022-11-26T15:25:17.670Z,16.98
2022-11-26T15:28:05.303Z,17.77
2022-11-26T15:30:37.047Z,13.40
2022-11-26T15:33:15.051Z,22.45
2022-11-26T15:35:43.959Z,17.33
2022-11-26T15:38:18.390Z,13.43
2022-11-26T15:40:55.190Z,15.30
2022-11-26T15:43:25.153Z,15.45
2022-11-26T15:45:55.099Z,15.00
2022-11-26T15:48:50.063Z,12.63
2022-11-26T15:51:14.720Z,18.13
2022-11-26T15:53:47.340Z,25.02
2022-11-26T15:56:19.209Z,17.50
2022-11-26T15:58:48.854Z,13.93
2022-11-26T16:01:18.610Z,15.52
2022-11-26T16:03:48.021Z,17.70
2022-11-26T16:06:51.251Z,14.23
2022-11-26T16:09:32.081Z,19.27
2022-11-26T16:12:00.824Z,18.65
2022-11-26T16:14:31.483Z,25.17
2022-11-26T16:17:08.022Z,26.30
2022-11-26T16:19:36.914Z,36.03
2022-11-26T16:22:05.631Z,33.58
2022-11-26T16:24:42.477Z,35.83
2022-11-26T16:27:21.351Z,47.70
2022-11-26T16:29:48.870Z,42.22
2022-11-26T16:32:17.220Z,37.55
2022-11-26T16:34:45.265Z,29.33
2022-11-26T16:37:29.834Z,27.92
2022-11-26T16:40:01.744Z,20.88
2022-11-26T16:42:31.154Z,22.02
2022-11-26T16:47:51.623Z,20.98
2022-11-26T16:50:25.143Z,22.48
2022-11-26T16:52:52.984Z,15.45
2022-11-26T16:55:22.830Z,17.45
2022-11-26T16:57:52.018Z,21.05
2022-11-26T17:00:21.291Z,30.80
2022-11-26T17:02:49.445Z,39.42
2022-11-26T17:05:17.740Z,36.72
2022-11-26T17:07:48.072Z,33.45
2022-11-26T17:10:20.143Z,29.30
2022-11-26T17:12:47.867Z,35.97
2022-11-26T17:15:15.421Z,31.60
2022-11-26T17:17:43.141Z,29.10
2022-11-26T17:20:27.378Z,28.27
2022-11-26T17:22:55.120Z,29.77
2022-11-26T17:25:23.064Z,22.90
2022-11-26T17:27:50.663Z,19.52
2022-11-26T17:30:19.920Z,21.25
2022-11-26T17:32:47.720Z,22.52
2022-11-26T17:35:15.519Z,23.88
2022-11-26T17:37:43.880Z,31.02
2022-11-26T17:40:22.514Z,26.42
2022-11-26T17:42:50.585Z,28.77
2022-11-26T17:45:19.139Z,32.20
2022-11-26T17:47:46.853Z,32.47
2022-11-26T17:50:24.734Z,34.47
2022-11-26T17:52:52.948Z,33.17
2022-11-26T17:55:21.601Z,34.85
2022-11-26T17:57:49.468Z,40.28
2022-11-26T18:00:21.754Z,31.40
2022-11-26T18:02:49.382Z,29.02
2022-11-26T18:05:17.155Z,30.88
2022-11-26T18:07:44.753Z,27.35
2022-11-26T18:10:13.969Z,21.88
2022-11-26T18:12:41.596Z,17.98
2022-11-26T18:15:09.381Z,18.38
2022-11-26T18:17:36.954Z,17.83
2022-11-26T18:20:04.460Z,17.50
2022-11-26T18:22:32.180Z,19.75
2022-11-26T18:25:00.259Z,15.20
2022-11-26T18:27:29.078Z,14.82
2022-11-26T18:29:56.867Z,24.30
2022-11-26T18:32:24.650Z,28.30
2022-11-26T18:34:52.470Z,34.75
2022-11-26T18:37:20.301Z,42.40
2022-11-26T18:39:47.708Z,34.00
2022-11-26T18:42:36.082Z,35.92
2022-11-26T18:45:03.962Z,34.22
2022-11-26T18:47:31.416Z,42.92
2022-11-26T18:49:59.010Z,37.63
2022-11-26T18:52:26.610Z,27.40
2022-11-26T18:54:54.373Z,39.40
2022-11-26T18:57:21.840Z,33.03
2022-11-26T18:59:50.786Z,29.95
2022-11-26T19:02:18.589Z,24.88
2022-11-26T19:04:46.273Z,23.90
2022-11-26T19:07:14.443Z,21.45
2022-11-26T19:09:42.695Z,25.17
2022-11-26T19:12:11.128Z,20.95
2022-11-26T19:14:38.903Z,26.58
2022-11-26T19:17:06.536Z,33.65
2022-11-26T19:19:34.491Z,40.40
2022-11-26T19:22:02.210Z,41.47
2022-11-26T19:24:30.862Z,44.60
2022-11-26T19:26:58.960Z,40.55
2022-11-26T19:29:26.550Z,36.58
2022-11-26T19:31:54.404Z,33.35
2022-11-26T19:34:21.904Z,26.88
2022-11-26T19:36:49.737Z,28.80
2022-11-26T19:39:18.899Z,29.45
2022-11-26T19:41:46.631Z,36.35
2022-11-26T19:44:14.304Z,37.90
2022-11-26T19:46:42.149Z,38.55
2022-11-26T19:49:12.720Z,33.58
2022-11-26T19:51:40.802Z,41.47
2022-11-26T19:54:08.759Z,38.83
2022-11-26T19:56:36.803Z,36.03
2022-11-26T19:59:04.724Z,38.13
2022-11-26T20:01:33.489Z,38.00
2022-11-26T20:04:02.498Z,25.45
2022-11-26T20:06:30.824Z,23.67
2022-11-26T20:08:59.370Z,26.63
2022-11-26T20:11:27.630Z,21.35
2022-11-26T20:13:56.153Z,22.85
2022-11-26T20:16:26.170Z,23.60
2022-11-26T20:18:53.897Z,18.90
2022-11-26T20:21:22.670Z,15.10
2022-11-26T20:23:51.100Z,17.50
2022-11-26T20:26:18.590Z,11.85
2022-11-26T20:28:46.387Z,13.45
2022-11-26T20:31:17.239Z,20.15
2022-11-26T20:33:48.373Z,22.38
2022-11-26T20:36:16.720Z,24.95
2022-11-26T20:38:44.434Z,27.52
2022-11-26T20:41:13.059Z,33.17
2022-11-26T20:43:40.683Z,39.72
2022-11-26T20:46:08.983Z,48.58
2022-11-26T20:48:37.401Z,38.83
2022-11-26T20:51:05.513Z,44.33
2022-11-26T20:53:33.911Z,31.48
2022-11-26T20:56:01.885Z,28.60
2022-11-26T20:58:30.215Z,28.80
2022-11-26T21:00:59.014Z,29.75
2022-11-26T21:03:27.655Z,26.65
2022-11-26T21:05:55.810Z,27.42
2022-11-26T21:08:23.910Z,27.05
2022-11-26T21:10:51.587Z,29.88
2022-11-26T21:13:21.195Z,21.65
2022-11-26T21:15:48.788Z,22.33
2022-11-26T21:18:16.826Z,19.92
2022-11-26T21:20:45.081Z,21.00
2022-11-26T21:23:13.693Z,20.17
2022-11-26T21:25:42.154Z,24.48
2022-11-26T21:28:10.709Z,22.15
2022-11-26T21:30:38.702Z,21.17
2022-11-26T21:33:09.463Z,25.52
2022-11-26T21:35:37.800Z,21.00
2022-11-26T21:38:06.785Z,25.25
2022-11-26T21:40:34.370Z,28.77
2022-11-26T21:43:02.138Z,25.80
2022-11-26T21:45:30.030Z,26.80
2022-11-26T21:47:57.803Z,25.83
2022-11-26T21:50:25.321Z,31.85
2022-11-26T21:52:53.019Z,37.90
2022-11-26T21:55:21.955Z,33.05
2022-11-26T21:57:49.370Z,28.30
2022-11-26T22:00:18.661Z,26.27
2022-11-26T22:02:46.102Z,24.55
2022-11-26T22:05:13.903Z,23.77
2022-11-26T22:07:42.064Z,25.13
2022-11-26T22:10:10.304Z,21.00
2022-11-26T22:12:37.781Z,28.10
2022-11-26T22:15:05.422Z,24.05
2022-11-26T22:17:33.191Z,24.38
2022-11-26T22:20:00.984Z,20.25
2022-11-26T22:22:28.502Z,20.85
2022-11-26T22:24:56.019Z,22.30
2022-11-26T22:27:23.565Z,24.40
2022-11-26T22:29:51.527Z,20.83
2022-11-26T22:32:19.297Z,23.60
2022-11-26T22:34:46.783Z,25.15
2022-11-26T22:37:14.480Z,22.83
2022-11-26T22:39:42.152Z,24.73
2022-11-26T22:42:09.800Z,23.50
2022-11-26T22:44:37.393Z,17.58
2022-11-26T22:47:04.985Z,21.05
2022-11-26T22:49:33.263Z,23.60
2022-11-26T22:52:00.851Z,27.42
2022-11-26T22:54:28.404Z,27.02
2022-11-26T22:56:56.195Z,27.75
2022-11-26T22:59:23.764Z,39.15
2022-11-26T23:01:55.841Z,30.33
2022-11-26T23:04:23.804Z,36.17
2022-11-26T23:06:51.563Z,27.67
2022-11-26T23:09:19.468Z,37.65
2022-11-26T23:11:46.963Z,43.47
2022-11-26T23:14:14.460Z,44.58
2022-11-26T23:16:43.054Z,30.55
2022-11-26T23:19:11.191Z,28.15
2022-11-26T23:21:40.133Z,35.95
2022-11-26T23:24:07.993Z,46.70
2022-11-26T23:26:36.039Z,58.25
2022-11-26T23:29:04.281Z,26.70
2022-11-26T23:31:33.223Z,30.90
2022-11-26T23:34:01.372Z,34.95
2022-11-26T23:36:29.413Z,31.23
2022-11-26T23:38:57.290Z,35.58
2022-11-26T23:41:24.733Z,33.42
2022-11-26T23:43:52.240Z,30.10
2022-11-26T23:46:22.157Z,37.88
2022-11-26T23:48:49.985Z,36.88
2022-11-26T23:51:19.642Z,54.22
2022-11-26T23:53:48.829Z,82.47
2022-11-26T23:56:19.092Z,63.60
2022-11-26T23:58:49.070Z,62.08
